sensor_id;sensor_type;location;lat;lon;timestamp;P1;durP1;ratioP1;P2;durP2;ratioP2
71759;SDS011;59919;48.112;16.280;2022-07-06T00:02:18;1.52;;;1.40;;
71759;SDS011;59919;48.112;16.280;2022-07-06T00:04:49;1.40;;;1.30;;
71759;SDS011;59919;48.112;16.280;2022-07-06T00:07:22;1.70;;;1.60;;
71759;SDS011;59919;48.112;16.280;2022-07-06T00:09:55;1.90;;;1.40;;
71759;SDS011;59919;48.112;16.280;2022-07-06T00:12:26;1.60;;;1.50;;
71759;SDS011;59919;48.112;16.280;2022-07-06T00:15:00;1.48;;;1.38;;
71759;SDS011;59919;48.112;16.280;2022-07-06T00:17:34;2.17;;;1.73;;
71759;SDS011;59919;48.112;16.280;2022-07-06T00:20:05;1.58;;;1.48;;
71759;SDS011;59919;48.112;16.280;2022-07-06T00:22:40;1.67;;;1.58;;
71759;SDS011;59919;48.112;16.280;2022-07-06T00:25:14;1.45;;;1.30;;
71759;SDS011;59919;48.112;16.280;2022-07-06T00:27:48;1.60;;;1.50;;
71759;SDS011;59919;48.112;16.280;2022-07-06T00:30:19;1.77;;;1.42;;
71759;SDS011;59919;48.112;16.280;2022-07-06T00:32:57;1.40;;;1.30;;
71759;SDS011;59919;48.112;16.280;2022-07-06T00:35:29;1.73;;;1.63;;
71759;SDS011;59919;48.112;16.280;2022-07-06T00:38:04;1.50;;;1.40;;
71759;SDS011;59919;48.112;16.280;2022-07-06T00:40:35;1.48;;;1.33;;
71759;SDS011;59919;48.112;16.280;2022-07-06T00:43:06;1.50;;;1.30;;
71759;SDS011;59919;48.112;16.280;2022-07-06T00:45:37;1.55;;;1.45;;
71759;SDS011;59919;48.112;16.280;2022-07-06T00:48:14;1.45;;;1.30;;
71759;SDS011;59919;48.112;16.280;2022-07-06T00:50:47;1.50;;;1.40;;
71759;SDS011;59919;48.112;16.280;2022-07-06T00:53:18;1.60;;;1.50;;
71759;SDS011;59919;48.112;16.280;2022-07-06T00:55:49;1.45;;;1.35;;
71759;SDS011;59919;48.112;16.280;2022-07-06T00:58:20;1.40;;;1.30;;
71759;SDS011;59919;48.112;16.280;2022-07-06T01:00:52;1.92;;;1.30;;
71759;SDS011;59919;48.112;16.280;2022-07-06T01:03:27;1.50;;;1.40;;
71759;SDS011;59919;48.112;16.280;2022-07-06T01:06:02;1.30;;;1.20;;
71759;SDS011;59919;48.112;16.280;2022-07-06T01:08:34;1.30;;;1.20;;
71759;SDS011;59919;48.112;16.280;2022-07-06T01:11:05;1.52;;;1.42;;
71759;SDS011;59919;48.112;16.280;2022-07-06T01:13:37;1.50;;;1.30;;
71759;SDS011;59919;48.112;16.280;2022-07-06T01:16:09;1.40;;;1.30;;
71759;SDS011;59919;48.112;16.280;2022-07-06T01:18:47;1.50;;;1.40;;
71759;SDS011;59919;48.112;16.280;2022-07-06T01:21:26;1.40;;;1.30;;
71759;SDS011;59919;48.112;16.280;2022-07-06T01:23:59;1.42;;;1.33;;
71759;SDS011;59919;48.112;16.280;2022-07-06T01:26:31;1.60;;;1.50;;
71759;SDS011;59919;48.112;16.280;2022-07-06T01:29:02;1.75;;;1.30;;
71759;SDS011;59919;48.112;16.280;2022-07-06T01:31:44;1.30;;;1.20;;
71759;SDS011;59919;48.112;16.280;2022-07-06T01:34:17;1.25;;;1.15;;
71759;SDS011;59919;48.112;16.280;2022-07-06T01:36:48;1.33;;;1.23;;
71759;SDS011;59919;48.112;16.280;2022-07-06T01:39:22;1.35;;;1.25;;
71759;SDS011;59919;48.112;16.280;2022-07-06T01:41:59;1.50;;;1.40;;
71759;SDS011;59919;48.112;16.280;2022-07-06T01:44:30;1.20;;;1.10;;
71759;SDS011;59919;48.112;16.280;2022-07-06T01:47:06;1.20;;;1.10;;
71759;SDS011;59919;48.112;16.280;2022-07-06T01:49:39;1.30;;;1.10;;
71759;SDS011;59919;48.112;16.280;2022-07-06T01:52:11;1.40;;;1.30;;
71759;SDS011;59919;48.112;16.280;2022-07-06T01:54:44;1.25;;;1.15;;
71759;SDS011;59919;48.112;16.280;2022-07-06T01:57:18;1.42;;;1.33;;
71759;SDS011;59919;48.112;16.280;2022-07-06T01:59:49;1.65;;;1.20;;
71759;SDS011;59919;48.112;16.280;2022-07-06T02:02:20;1.40;;;1.20;;
71759;SDS011;59919;48.112;16.280;2022-07-06T02:04:51;1.40;;;1.30;;
71759;SDS011;59919;48.112;16.280;2022-07-06T02:07:27;1.52;;;1.42;;
71759;SDS011;59919;48.112;16.280;2022-07-06T02:10:00;1.30;;;1.20;;
71759;SDS011;59919;48.112;16.280;2022-07-06T02:12:31;1.58;;;1.33;;
71759;SDS011;59919;48.112;16.280;2022-07-06T02:15:05;1.70;;;1.60;;
71759;SDS011;59919;48.112;16.280;2022-07-06T02:17:37;1.00;;;1.00;;
71759;SDS011;59919;48.112;16.280;2022-07-06T02:20:08;1.50;;;1.40;;
71759;SDS011;59919;48.112;16.280;2022-07-06T02:22:40;1.40;;;1.30;;
71759;SDS011;59919;48.112;16.280;2022-07-06T02:25:11;1.20;;;1.10;;
71759;SDS011;59919;48.112;16.280;2022-07-06T02:27:42;1.20;;;1.10;;
71759;SDS011;59919;48.112;16.280;2022-07-06T02:30:13;1.33;;;1.00;;
71759;SDS011;59919;48.112;16.280;2022-07-06T02:32:44;1.33;;;1.23;;
71759;SDS011;59919;48.112;16.280;2022-07-06T02:35:15;1.30;;;1.20;;
71759;SDS011;59919;48.112;16.280;2022-07-06T02:37:51;1.20;;;1.20;;
71759;SDS011;59919;48.112;16.280;2022-07-06T02:40:22;1.38;;;1.27;;
71759;SDS011;59919;48.112;16.280;2022-07-06T02:42:57;1.40;;;1.30;;
71759;SDS011;59919;48.112;16.280;2022-07-06T02:45:31;1.50;;;1.30;;
71759;SDS011;59919;48.112;16.280;2022-07-06T02:48:05;1.30;;;1.20;;
71759;SDS011;59919;48.112;16.280;2022-07-06T02:50:36;1.40;;;1.30;;
71759;SDS011;59919;48.112;16.280;2022-07-06T02:53:07;1.48;;;1.38;;
71759;SDS011;59919;48.112;16.280;2022-07-06T02:55:41;1.30;;;1.20;;
71759;SDS011;59919;48.112;16.280;2022-07-06T02:58:12;1.40;;;1.30;;
71759;SDS011;59919;48.112;16.280;2022-07-06T03:00:50;1.42;;;1.30;;
71759;SDS011;59919;48.112;16.280;2022-07-06T03:03:23;1.30;;;1.20;;
71759;SDS011;59919;48.112;16.280;2022-07-06T03:05:54;1.27;;;1.17;;
71759;SDS011;59919;48.112;16.280;2022-07-06T03:08:31;1.30;;;1.20;;
71759;SDS011;59919;48.112;16.280;2022-07-06T03:11:02;1.20;;;1.10;;
71759;SDS011;59919;48.112;16.280;2022-07-06T03:13:33;1.20;;;1.20;;
71759;SDS011;59919;48.112;16.280;2022-07-06T03:16:06;1.50;;;1.40;;
71759;SDS011;59919;48.112;16.280;2022-07-06T03:18:41;1.30;;;1.20;;
71759;SDS011;59919;48.112;16.280;2022-07-06T03:21:15;1.20;;;1.10;;
71759;SDS011;59919;48.112;16.280;2022-07-06T03:23:46;1.23;;;1.13;;
71759;SDS011;59919;48.112;16.280;2022-07-06T03:26:19;1.17;;;1.10;;
71759;SDS011;59919;48.112;16.280;2022-07-06T03:28:56;1.25;;;1.15;;
71759;SDS011;59919;48.112;16.280;2022-07-06T03:31:27;1.30;;;1.20;;
71759;SDS011;59919;48.112;16.280;2022-07-06T03:33:58;1.23;;;1.13;;
71759;SDS011;59919;48.112;16.280;2022-07-06T03:36:29;1.30;;;1.20;;
71759;SDS011;59919;48.112;16.280;2022-07-06T03:39:00;1.25;;;1.15;;
71759;SDS011;59919;48.112;16.280;2022-07-06T03:41:31;0.90;;;0.90;;
71759;SDS011;59919;48.112;16.280;2022-07-06T03:44:03;1.30;;;1.20;;
71759;SDS011;59919;48.112;16.280;2022-07-06T03:46:37;1.23;;;1.13;;
71759;SDS011;59919;48.112;16.280;2022-07-06T03:51:45;1.35;;;1.25;;
71759;SDS011;59919;48.112;16.280;2022-07-06T03:54:21;1.40;;;1.10;;
71759;SDS011;59919;48.112;16.280;2022-07-06T03:56:52;1.17;;;1.08;;
71759;SDS011;59919;48.112;16.280;2022-07-06T03:59:26;1.42;;;1.33;;
71759;SDS011;59919;48.112;16.280;2022-07-06T04:01:57;1.23;;;1.13;;
71759;SDS011;59919;48.112;16.280;2022-07-06T04:04:31;1.20;;;1.10;;
71759;SDS011;59919;48.112;16.280;2022-07-06T04:07:08;1.50;;;1.40;;
71759;SDS011;59919;48.112;16.280;2022-07-06T04:09:41;1.60;;;1.30;;
71759;SDS011;59919;48.112;16.280;2022-07-06T04:12:12;1.05;;;1.05;;
71759;SDS011;59919;48.112;16.280;2022-07-06T04:14:43;1.40;;;1.30;;
71759;SDS011;59919;48.112;16.280;2022-07-06T04:17:17;1.02;;;0.93;;
71759;SDS011;59919;48.112;16.280;2022-07-06T04:20:07;1.17;;;1.15;;
71759;SDS011;59919;48.112;16.280;2022-07-06T04:22:39;1.10;;;1.10;;
71759;SDS011;59919;48.112;16.280;2022-07-06T04:25:13;0.88;;;0.88;;
71759;SDS011;59919;48.112;16.280;2022-07-06T04:27:44;0.93;;;0.93;;
71759;SDS011;59919;48.112;16.280;2022-07-06T04:30:16;0.80;;;0.80;;
71759;SDS011;59919;48.112;16.280;2022-07-06T04:32:50;1.30;;;1.20;;
71759;SDS011;59919;48.112;16.280;2022-07-06T04:35:23;1.02;;;1.02;;
71759;SDS011;59919;48.112;16.280;2022-07-06T04:37:57;1.27;;;1.17;;
71759;SDS011;59919;48.112;16.280;2022-07-06T04:40:30;1.20;;;1.10;;
71759;SDS011;59919;48.112;16.280;2022-07-06T04:43:04;1.20;;;1.10;;
71759;SDS011;59919;48.112;16.280;2022-07-06T04:45:35;0.95;;;0.90;;
71759;SDS011;59919;48.112;16.280;2022-07-06T04:48:07;1.35;;;1.20;;
71759;SDS011;59919;48.112;16.280;2022-07-06T04:50:38;1.38;;;1.27;;
71759;SDS011;59919;48.112;16.280;2022-07-06T04:53:12;0.95;;;0.90;;
71759;SDS011;59919;48.112;16.280;2022-07-06T04:55:45;1.20;;;1.10;;
71759;SDS011;59919;48.112;16.280;2022-07-06T04:58:16;1.10;;;1.10;;
71759;SDS011;59919;48.112;16.280;2022-07-06T05:00:52;1.00;;;0.90;;
71759;SDS011;59919;48.112;16.280;2022-07-06T05:03:26;1.00;;;1.00;;
71759;SDS011;59919;48.112;16.280;2022-07-06T05:05:57;1.00;;;1.00;;
71759;SDS011;59919;48.112;16.280;2022-07-06T05:08:28;1.10;;;1.00;;
71759;SDS011;59919;48.112;16.280;2022-07-06T05:11:01;1.00;;;1.00;;
71759;SDS011;59919;48.112;16.280;2022-07-06T05:13:32;1.20;;;1.10;;
71759;SDS011;59919;48.112;16.280;2022-07-06T05:16:03;1.00;;;1.00;;
71759;SDS011;59919;48.112;16.280;2022-07-06T05:18:35;1.20;;;1.08;;
71759;SDS011;59919;48.112;16.280;2022-07-06T05:21:06;1.08;;;1.00;;
71759;SDS011;59919;48.112;16.280;2022-07-06T05:23:39;1.10;;;1.00;;
71759;SDS011;59919;48.112;16.280;2022-07-06T05:26:15;1.00;;;1.00;;
71759;SDS011;59919;48.112;16.280;2022-07-06T05:28:47;0.98;;;0.98;;
71759;SDS011;59919;48.112;16.280;2022-07-06T05:31:20;0.90;;;0.90;;
71759;SDS011;59919;48.112;16.280;2022-07-06T05:33:51;1.10;;;1.00;;
71759;SDS011;59919;48.112;16.280;2022-07-06T05:36:23;1.10;;;1.00;;
71759;SDS011;59919;48.112;16.280;2022-07-06T05:38:54;1.00;;;1.00;;
71759;SDS011;59919;48.112;16.280;2022-07-06T05:41:28;1.10;;;1.10;;
71759;SDS011;59919;48.112;16.280;2022-07-06T05:44:02;1.05;;;1.05;;
71759;SDS011;59919;48.112;16.280;2022-07-06T05:46:38;1.52;;;1.20;;
71759;SDS011;59919;48.112;16.280;2022-07-06T05:49:09;1.10;;;1.00;;
71759;SDS011;59919;48.112;16.280;2022-07-06T05:51:59;1.13;;;1.02;;
71759;SDS011;59919;48.112;16.280;2022-07-06T05:54:33;1.10;;;1.00;;
71759;SDS011;59919;48.112;16.280;2022-07-06T05:57:04;1.10;;;1.00;;
71759;SDS011;59919;48.112;16.280;2022-07-06T05:59:35;1.10;;;1.00;;
71759;SDS011;59919;48.112;16.280;2022-07-06T06:02:09;1.40;;;1.30;;
71759;SDS011;59919;48.112;16.280;2022-07-06T06:04:40;1.20;;;1.10;;
71759;SDS011;59919;48.112;16.280;2022-07-06T06:07:13;1.20;;;1.10;;
71759;SDS011;59919;48.112;16.280;2022-07-06T06:09:44;1.77;;;0.90;;
71759;SDS011;59919;48.112;16.280;2022-07-06T06:12:18;1.15;;;1.10;;
71759;SDS011;59919;48.112;16.280;2022-07-06T06:14:54;2.53;;;1.30;;
71759;SDS011;59919;48.112;16.280;2022-07-06T06:17:25;1.33;;;1.23;;
71759;SDS011;59919;48.112;16.280;2022-07-06T06:20:07;1.42;;;1.25;;
71759;SDS011;59919;48.112;16.280;2022-07-06T06:22:58;1.55;;;1.40;;
71759;SDS011;59919;48.112;16.280;2022-07-06T06:25:33;2.55;;;1.30;;
71759;SDS011;59919;48.112;16.280;2022-07-06T06:28:06;1.48;;;1.27;;
71759;SDS011;59919;48.112;16.280;2022-07-06T06:30:38;1.42;;;1.33;;
71759;SDS011;59919;48.112;16.280;2022-07-06T06:33:10;1.67;;;1.58;;
71759;SDS011;59919;48.112;16.280;2022-07-06T06:35:43;1.80;;;1.70;;
71759;SDS011;59919;48.112;16.280;2022-07-06T06:38:16;1.65;;;1.55;;
71759;SDS011;59919;48.112;16.280;2022-07-06T06:40:48;1.90;;;1.80;;
71759;SDS011;59919;48.112;16.280;2022-07-06T06:43:25;1.83;;;1.73;;
71759;SDS011;59919;48.112;16.280;2022-07-06T06:45:56;2.00;;;1.90;;
71759;SDS011;59919;48.112;16.280;2022-07-06T06:48:30;1.75;;;1.60;;
71759;SDS011;59919;48.112;16.280;2022-07-06T06:51:04;1.80;;;1.70;;
71759;SDS011;59919;48.112;16.280;2022-07-06T06:53:35;1.60;;;1.50;;
71759;SDS011;59919;48.112;16.280;2022-07-06T06:56:06;1.77;;;1.67;;
71759;SDS011;59919;48.112;16.280;2022-07-06T06:58:38;2.55;;;2.22;;
71759;SDS011;59919;48.112;16.280;2022-07-06T07:01:09;2.50;;;1.95;;
71759;SDS011;59919;48.112;16.280;2022-07-06T07:03:40;3.60;;;1.95;;
71759;SDS011;59919;48.112;16.280;2022-07-06T07:06:11;2.20;;;2.00;;
71759;SDS011;59919;48.112;16.280;2022-07-06T07:08:42;4.90;;;1.70;;
71759;SDS011;59919;48.112;16.280;2022-07-06T07:11:21;2.90;;;1.90;;
71759;SDS011;59919;48.112;16.280;2022-07-06T07:13:57;2.30;;;2.10;;
71759;SDS011;59919;48.112;16.280;2022-07-06T07:16:30;2.28;;;1.85;;
71759;SDS011;59919;48.112;16.280;2022-07-06T07:19:01;2.35;;;2.08;;
71759;SDS011;59919;48.112;16.280;2022-07-06T07:21:33;2.72;;;2.10;;
71759;SDS011;59919;48.112;16.280;2022-07-06T07:24:06;2.08;;;1.92;;
71759;SDS011;59919;48.112;16.280;2022-07-06T07:26:38;2.22;;;1.90;;
71759;SDS011;59919;48.112;16.280;2022-07-06T07:29:09;3.10;;;1.90;;
71759;SDS011;59919;48.112;16.280;2022-07-06T07:31:40;2.17;;;1.98;;
71759;SDS011;59919;48.112;16.280;2022-07-06T07:34:14;2.95;;;1.88;;
71759;SDS011;59919;48.112;16.280;2022-07-06T07:36:48;2.30;;;1.90;;
71759;SDS011;59919;48.112;16.280;2022-07-06T07:39:19;22.95;;;4.50;;
71759;SDS011;59919;48.112;16.280;2022-07-06T07:41:50;18.77;;;3.58;;
71759;SDS011;59919;48.112;16.280;2022-07-06T07:44:23;8.90;;;2.75;;
71759;SDS011;59919;48.112;16.280;2022-07-06T07:46:55;48.60;;;5.35;;
71759;SDS011;59919;48.112;16.280;2022-07-06T07:49:29;16.65;;;3.35;;
71759;SDS011;59919;48.112;16.280;2022-07-06T07:52:03;7.43;;;2.78;;
71759;SDS011;59919;48.112;16.280;2022-07-06T07:54:34;5.32;;;2.22;;
71759;SDS011;59919;48.112;16.280;2022-07-06T07:57:08;9.20;;;2.35;;
71759;SDS011;59919;48.112;16.280;2022-07-06T07:59:40;4.95;;;2.13;;
71759;SDS011;59919;48.112;16.280;2022-07-06T08:02:12;10.07;;;2.58;;
71759;SDS011;59919;48.112;16.280;2022-07-06T08:04:43;8.95;;;2.28;;
71759;SDS011;59919;48.112;16.280;2022-07-06T08:07:14;5.15;;;2.92;;
71759;SDS011;59919;48.112;16.280;2022-07-06T08:09:45;5.18;;;2.80;;
71759;SDS011;59919;48.112;16.280;2022-07-06T08:12:17;7.65;;;2.45;;
71759;SDS011;59919;48.112;16.280;2022-07-06T08:14:48;5.60;;;2.78;;
71759;SDS011;59919;48.112;16.280;2022-07-06T08:17:21;4.53;;;2.45;;
71759;SDS011;59919;48.112;16.280;2022-07-06T08:19:52;7.38;;;2.40;;
71759;SDS011;59919;48.112;16.280;2022-07-06T08:22:24;7.55;;;2.53;;
71759;SDS011;59919;48.112;16.280;2022-07-06T08:24:55;4.35;;;2.38;;
71759;SDS011;59919;48.112;16.280;2022-07-06T08:27:30;6.95;;;2.38;;
71759;SDS011;59919;48.112;16.280;2022-07-06T08:30:02;5.70;;;2.25;;
71759;SDS011;59919;48.112;16.280;2022-07-06T08:32:36;4.57;;;2.25;;
71759;SDS011;59919;48.112;16.280;2022-07-06T08:35:14;5.43;;;2.08;;
71759;SDS011;59919;48.112;16.280;2022-07-06T08:37:47;5.25;;;2.28;;
71759;SDS011;59919;48.112;16.280;2022-07-06T08:40:24;4.82;;;2.08;;
71759;SDS011;59919;48.112;16.280;2022-07-06T08:42:59;2.13;;;1.90;;
71759;SDS011;59919;48.112;16.280;2022-07-06T08:45:39;3.90;;;2.10;;
71759;SDS011;59919;48.112;16.280;2022-07-06T08:48:12;3.97;;;2.60;;
71759;SDS011;59919;48.112;16.280;2022-07-06T08:50:51;3.20;;;2.00;;
71759;SDS011;59919;48.112;16.280;2022-07-06T08:55:56;3.30;;;2.17;;
71759;SDS011;59919;48.112;16.280;2022-07-06T08:58:28;5.43;;;2.28;;
71759;SDS011;59919;48.112;16.280;2022-07-06T09:01:03;4.53;;;2.00;;
71759;SDS011;59919;48.112;16.280;2022-07-06T09:03:35;3.72;;;2.15;;
71759;SDS011;59919;48.112;16.280;2022-07-06T09:06:09;3.25;;;2.25;;
71759;SDS011;59919;48.112;16.280;2022-07-06T09:08:42;3.10;;;2.00;;
71759;SDS011;59919;48.112;16.280;2022-07-06T09:11:18;5.85;;;2.33;;
71759;SDS011;59919;48.112;16.280;2022-07-06T09:13:52;2.88;;;2.13;;
71759;SDS011;59919;48.112;16.280;2022-07-06T09:16:27;3.55;;;2.42;;
71759;SDS011;59919;48.112;16.280;2022-07-06T09:19:02;2.80;;;2.08;;
71759;SDS011;59919;48.112;16.280;2022-07-06T09:21:36;3.17;;;2.50;;
71759;SDS011;59919;48.112;16.280;2022-07-06T09:24:11;4.25;;;2.83;;
71759;SDS011;59919;48.112;16.280;2022-07-06T09:26:43;4.63;;;2.40;;
71759;SDS011;59919;48.112;16.280;2022-07-06T09:29:17;6.07;;;2.80;;
71759;SDS011;59919;48.112;16.280;2022-07-06T09:31:57;4.65;;;2.20;;
71759;SDS011;59919;48.112;16.280;2022-07-06T09:34:43;5.75;;;2.53;;
71759;SDS011;59919;48.112;16.280;2022-07-06T09:37:17;3.13;;;2.50;;
71759;SDS011;59919;48.112;16.280;2022-07-06T09:39:48;3.35;;;2.33;;
71759;SDS011;59919;48.112;16.280;2022-07-06T09:42:24;3.60;;;2.50;;
71759;SDS011;59919;48.112;16.280;2022-07-06T09:45:00;5.10;;;2.60;;
71759;SDS011;59919;48.112;16.280;2022-07-06T09:47:35;3.63;;;2.78;;
71759;SDS011;59919;48.112;16.280;2022-07-06T09:50:10;3.63;;;2.58;;
71759;SDS011;59919;48.112;16.280;2022-07-06T09:52:55;3.00;;;2.50;;
71759;SDS011;59919;48.112;16.280;2022-07-06T09:55:26;3.60;;;2.28;;
71759;SDS011;59919;48.112;16.280;2022-07-06T09:57:57;3.97;;;2.50;;
71759;SDS011;59919;48.112;16.280;2022-07-06T10:00:30;5.03;;;2.55;;
71759;SDS011;59919;48.112;16.280;2022-07-06T10:03:04;6.38;;;2.90;;
71759;SDS011;59919;48.112;16.280;2022-07-06T10:05:41;3.70;;;2.63;;
71759;SDS011;59919;48.112;16.280;2022-07-06T10:08:17;4.05;;;2.50;;
71759;SDS011;59919;48.112;16.280;2022-07-06T10:10:50;4.32;;;2.90;;
71759;SDS011;59919;48.112;16.280;2022-07-06T10:13:24;2.97;;;2.67;;
71759;SDS011;59919;48.112;16.280;2022-07-06T10:15:57;2.83;;;2.50;;
71759;SDS011;59919;48.112;16.280;2022-07-06T10:18:30;2.60;;;2.40;;
71759;SDS011;59919;48.112;16.280;2022-07-06T10:21:01;4.05;;;2.80;;
71759;SDS011;59919;48.112;16.280;2022-07-06T10:23:33;2.42;;;2.28;;
71759;SDS011;59919;48.112;16.280;2022-07-06T10:26:09;4.63;;;2.85;;
71759;SDS011;59919;48.112;16.280;2022-07-06T10:28:44;2.90;;;2.70;;
71759;SDS011;59919;48.112;16.280;2022-07-06T10:31:17;4.45;;;2.42;;
71759;SDS011;59919;48.112;16.280;2022-07-06T10:33:49;3.45;;;2.40;;
71759;SDS011;59919;48.112;16.280;2022-07-06T10:36:21;3.85;;;2.75;;
71759;SDS011;59919;48.112;16.280;2022-07-06T10:38:55;2.50;;;2.28;;
71759;SDS011;59919;48.112;16.280;2022-07-06T10:41:49;2.97;;;2.70;;
71759;SDS011;59919;48.112;16.280;2022-07-06T10:44:27;2.65;;;2.22;;
71759;SDS011;59919;48.112;16.280;2022-07-06T10:47:00;3.00;;;2.80;;
71759;SDS011;59919;48.112;16.280;2022-07-06T10:49:31;3.08;;;2.40;;
71759;SDS011;59919;48.112;16.280;2022-07-06T10:52:19;2.70;;;2.50;;
71759;SDS011;59919;48.112;16.280;2022-07-06T10:54:53;2.88;;;2.60;;
71759;SDS011;59919;48.112;16.280;2022-07-06T10:57:27;2.97;;;2.63;;
71759;SDS011;59919;48.112;16.280;2022-07-06T11:00:01;2.75;;;2.47;;
71759;SDS011;59919;48.112;16.280;2022-07-06T11:02:39;2.63;;;2.42;;
71759;SDS011;59919;48.112;16.280;2022-07-06T11:05:11;2.70;;;2.35;;
71759;SDS011;59919;48.112;16.280;2022-07-06T11:07:50;2.90;;;2.58;;
71759;SDS011;59919;48.112;16.280;2022-07-06T11:10:22;3.38;;;2.40;;
71759;SDS011;59919;48.112;16.280;2022-07-06T11:12:59;4.18;;;2.63;;
71759;SDS011;59919;48.112;16.280;2022-07-06T11:15:46;3.53;;;3.00;;
71759;SDS011;59919;48.112;16.280;2022-07-06T11:18:20;4.28;;;2.90;;
71759;SDS011;59919;48.112;16.280;2022-07-06T11:23:48;4.10;;;3.28;;
71759;SDS011;59919;48.112;16.280;2022-07-06T11:26:21;6.03;;;3.53;;
71759;SDS011;59919;48.112;16.280;2022-07-06T11:28:55;5.88;;;3.67;;
71759;SDS011;59919;48.112;16.280;2022-07-06T11:31:31;4.35;;;3.65;;
71759;SDS011;59919;48.112;16.280;2022-07-06T11:34:11;5.47;;;3.60;;
71759;SDS011;59919;48.112;16.280;2022-07-06T11:36:47;4.07;;;3.50;;
71759;SDS011;59919;48.112;16.280;2022-07-06T11:39:24;3.83;;;3.50;;
71759;SDS011;59919;48.112;16.280;2022-07-06T11:41:58;5.45;;;3.13;;
71759;SDS011;59919;48.112;16.280;2022-07-06T11:44:34;4.50;;;3.40;;
71759;SDS011;59919;48.112;16.280;2022-07-06T11:47:07;3.78;;;3.00;;
71759;SDS011;59919;48.112;16.280;2022-07-06T11:49:39;5.72;;;3.30;;
71759;SDS011;59919;48.112;16.280;2022-07-06T11:52:12;7.28;;;3.25;;
71759;SDS011;59919;48.112;16.280;2022-07-06T11:54:46;6.53;;;3.45;;
71759;SDS011;59919;48.112;16.280;2022-07-06T11:57:17;7.30;;;3.47;;
71759;SDS011;59919;48.112;16.280;2022-07-06T12:02:20;7.10;;;3.13;;
71759;SDS011;59919;48.112;16.280;2022-07-06T12:04:51;4.30;;;3.40;;
71759;SDS011;59919;48.112;16.280;2022-07-06T12:07:22;5.35;;;3.15;;
71759;SDS011;59919;48.112;16.280;2022-07-06T12:09:56;3.55;;;3.25;;
71759;SDS011;59919;48.112;16.280;2022-07-06T12:12:27;4.30;;;3.03;;
71759;SDS011;59919;48.112;16.280;2022-07-06T12:14:58;3.92;;;3.30;;
71759;SDS011;59919;48.112;16.280;2022-07-06T12:17:33;6.28;;;3.25;;
71759;SDS011;59919;48.112;16.280;2022-07-06T12:20:07;3.60;;;3.25;;
71759;SDS011;59919;48.112;16.280;2022-07-06T12:22:41;5.07;;;3.08;;
71759;SDS011;59919;48.112;16.280;2022-07-06T12:25:28;3.90;;;3.00;;
71759;SDS011;59919;48.112;16.280;2022-07-06T12:28:04;7.65;;;3.30;;
71759;SDS011;59919;48.112;16.280;2022-07-06T12:30:45;5.30;;;3.40;;
71759;SDS011;59919;48.112;16.280;2022-07-06T12:33:16;5.28;;;2.95;;
71759;SDS011;59919;48.112;16.280;2022-07-06T12:35:52;3.60;;;3.30;;
71759;SDS011;59919;48.112;16.280;2022-07-06T12:38:26;4.85;;;3.30;;
71759;SDS011;59919;48.112;16.280;2022-07-06T12:40:58;4.57;;;3.08;;
71759;SDS011;59919;48.112;16.280;2022-07-06T12:43:37;3.63;;;3.13;;
71759;SDS011;59919;48.112;16.280;2022-07-06T12:49:01;5.38;;;3.00;;
71759;SDS011;59919;48.112;16.280;2022-07-06T12:54:27;16.35;;;5.85;;
71759;SDS011;59919;48.112;16.280;2022-07-06T12:57:05;17.70;;;7.15;;
71759;SDS011;59919;48.112;16.280;2022-07-06T12:59:41;23.65;;;9.35;;
71759;SDS011;59919;48.112;16.280;2022-07-06T13:02:33;24.08;;;9.30;;
71759;SDS011;59919;48.112;16.280;2022-07-06T13:05:12;25.42;;;8.88;;
71759;SDS011;59919;48.112;16.280;2022-07-06T13:07:49;27.83;;;8.98;;
71759;SDS011;59919;48.112;16.280;2022-07-06T13:10:22;19.30;;;8.50;;
71759;SDS011;59919;48.112;16.280;2022-07-06T13:12:57;18.77;;;8.10;;
71759;SDS011;59919;48.112;16.280;2022-07-06T13:15:33;29.35;;;11.95;;
71759;SDS011;59919;48.112;16.280;2022-07-06T13:18:04;27.52;;;13.13;;
71759;SDS011;59919;48.112;16.280;2022-07-06T13:20:35;25.35;;;12.50;;
71759;SDS011;59919;48.112;16.280;2022-07-06T13:23:12;29.50;;;13.70;;
71759;SDS011;59919;48.112;16.280;2022-07-06T13:25:55;34.90;;;16.17;;
71759;SDS011;59919;48.112;16.280;2022-07-06T13:28:28;28.15;;;10.68;;
71759;SDS011;59919;48.112;16.280;2022-07-06T13:31:02;19.08;;;9.27;;
71759;SDS011;59919;48.112;16.280;2022-07-06T13:33:35;9.75;;;4.50;;
71759;SDS011;59919;48.112;16.280;2022-07-06T13:36:12;13.63;;;4.93;;
71759;SDS011;59919;48.112;16.280;2022-07-06T13:38:43;14.75;;;6.38;;
71759;SDS011;59919;48.112;16.280;2022-07-06T13:41:19;14.35;;;6.60;;
71759;SDS011;59919;48.112;16.280;2022-07-06T13:44:02;14.07;;;7.72;;
71759;SDS011;59919;48.112;16.280;2022-07-06T13:46:33;13.30;;;6.75;;
71759;SDS011;59919;48.112;16.280;2022-07-06T13:49:07;14.52;;;6.82;;
71759;SDS011;59919;48.112;16.280;2022-07-06T13:51:38;17.77;;;7.45;;
71759;SDS011;59919;48.112;16.280;2022-07-06T13:54:13;28.23;;;10.70;;
71759;SDS011;59919;48.112;16.280;2022-07-06T13:56:44;51.47;;;19.52;;
71759;SDS011;59919;48.112;16.280;2022-07-06T13:59:15;41.67;;;17.25;;
71759;SDS011;59919;48.112;16.280;2022-07-06T14:01:46;41.00;;;15.88;;
71759;SDS011;59919;48.112;16.280;2022-07-06T14:04:17;37.70;;;14.15;;
71759;SDS011;59919;48.112;16.280;2022-07-06T14:06:50;33.08;;;12.63;;
71759;SDS011;59919;48.112;16.280;2022-07-06T14:09:27;30.65;;;13.05;;
71759;SDS011;59919;48.112;16.280;2022-07-06T14:12:00;27.17;;;11.57;;
71759;SDS011;59919;48.112;16.280;2022-07-06T14:14:34;33.85;;;12.95;;
71759;SDS011;59919;48.112;16.280;2022-07-06T14:17:07;32.20;;;12.25;;
71759;SDS011;59919;48.112;16.280;2022-07-06T14:19:38;28.83;;;11.23;;
71759;SDS011;59919;48.112;16.280;2022-07-06T14:22:14;25.45;;;10.73;;
71759;SDS011;59919;48.112;16.280;2022-07-06T14:24:45;24.77;;;10.30;;
71759;SDS011;59919;48.112;16.280;2022-07-06T14:27:19;21.38;;;10.20;;
71759;SDS011;59919;48.112;16.280;2022-07-06T14:29:55;19.15;;;9.80;;
71759;SDS011;59919;48.112;16.280;2022-07-06T14:32:26;21.02;;;9.27;;
71759;SDS011;59919;48.112;16.280;2022-07-06T14:35:00;22.85;;;9.50;;
71759;SDS011;59919;48.112;16.280;2022-07-06T14:37:37;16.48;;;9.05;;
71759;SDS011;59919;48.112;16.280;2022-07-06T14:40:08;21.40;;;9.05;;
71759;SDS011;59919;48.112;16.280;2022-07-06T14:42:45;17.38;;;8.20;;
71759;SDS011;59919;48.112;16.280;2022-07-06T14:45:16;19.48;;;8.90;;
71759;SDS011;59919;48.112;16.280;2022-07-06T14:47:47;16.08;;;8.40;;
71759;SDS011;59919;48.112;16.280;2022-07-06T14:50:18;14.95;;;7.57;;
71759;SDS011;59919;48.112;16.280;2022-07-06T14:52:50;19.80;;;9.07;;
71759;SDS011;59919;48.112;16.280;2022-07-06T14:55:24;14.65;;;7.70;;
71759;SDS011;59919;48.112;16.280;2022-07-06T14:57:57;15.30;;;7.65;;
71759;SDS011;59919;48.112;16.280;2022-07-06T15:00:31;13.85;;;7.68;;
71759;SDS011;59919;48.112;16.280;2022-07-06T15:03:02;13.48;;;7.25;;
71759;SDS011;59919;48.112;16.280;2022-07-06T15:05:38;13.40;;;7.80;;
71759;SDS011;59919;48.112;16.280;2022-07-06T15:08:14;11.30;;;6.57;;
71759;SDS011;59919;48.112;16.280;2022-07-06T15:10:45;13.32;;;6.85;;
71759;SDS011;59919;48.112;16.280;2022-07-06T15:13:19;10.15;;;6.82;;
71759;SDS011;59919;48.112;16.280;2022-07-06T15:15:53;12.68;;;6.47;;
71759;SDS011;59919;48.112;16.280;2022-07-06T15:18:24;11.55;;;6.25;;
71759;SDS011;59919;48.112;16.280;2022-07-06T15:20:57;11.20;;;7.47;;
71759;SDS011;59919;48.112;16.280;2022-07-06T15:23:28;10.93;;;6.22;;
71759;SDS011;59919;48.112;16.280;2022-07-06T15:26:01;13.88;;;7.13;;